首页
METAR-TAF:

METAR-TAF

机场 :

Kariba, 辛巴威

纬度: 16-31S, 经度: 028-53E, 海拔: 518米

当前天气观测

该预报发布于2小时和24分钟前的09:00 UTC
风速8节,风向西转西南
温度 27°C
湿度 48%
气压 1022 hPa
能见度10公里或以上
1500米以下无云,无积雨云

METAR: FVKB 260900Z 24008KT CAVOK 27/15 Q1022 NOSIG

时间: 13:24 (11:24 UTC)


TAF: 丢失

超过4000个机场的气象观测和天气预报(METAR&TAF报告)。

可查询的气象台以黄色和红色小点在地图上表示。

将鼠标移到小点上方,可查看气象台名称。

然后点击查看天气观测和预报。

如需切换地图:点击带黑十字的绿色按钮放大地图;点击带横线的绿色按钮缩小地图;或者点击绿色箭头查看邻近地区的地图。


METAR-TAF: